sensor_id;sensor_type;location;lat;lon;timestamp;P1;durP1;ratioP1;P2;durP2;ratioP2
20857;SDS011;10589;53.636;10.012;2023-12-07T04:46:45;118.20;;;42.80;;
20857;SDS011;10589;53.636;10.012;2023-12-07T04:49:11;125.67;;;46.30;;
20857;SDS011;10589;53.636;10.012;2023-12-07T04:51:36;123.90;;;46.40;;
20857;SDS011;10589;53.636;10.012;2023-12-07T04:54:02;128.90;;;47.67;;
20857;SDS011;10589;53.636;10.012;2023-12-07T04:56:28;119.27;;;45.67;;
20857;SDS011;10589;53.636;10.012;2023-12-07T04:58:53;118.63;;;44.67;;
20857;SDS011;10589;53.636;10.012;2023-12-07T05:01:19;109.10;;;42.97;;
20857;SDS011;10589;53.636;10.012;2023-12-07T05:03:45;122.17;;;46.70;;
20857;SDS011;10589;53.636;10.012;2023-12-07T05:06:10;113.67;;;45.17;;
20857;SDS011;10589;53.636;10.012;2023-12-07T05:08:36;112.67;;;42.67;;
20857;SDS011;10589;53.636;10.012;2023-12-07T05:11:04;103.77;;;44.03;;
20857;SDS011;10589;53.636;10.012;2023-12-07T05:13:30;100.20;;;42.60;;
20857;SDS011;10589;53.636;10.012;2023-12-07T05:15:55;112.67;;;44.73;;
20857;SDS011;10589;53.636;10.012;2023-12-07T05:18:22;111.73;;;45.07;;
20857;SDS011;10589;53.636;10.012;2023-12-07T05:20:47;105.03;;;42.67;;
20857;SDS011;10589;53.636;10.012;2023-12-07T05:23:13;109.23;;;45.10;;
20857;SDS011;10589;53.636;10.012;2023-12-07T05:25:39;100.33;;;44.17;;
20857;SDS011;10589;53.636;10.012;2023-12-07T05:28:04;102.87;;;43.60;;
20857;SDS011;10589;53.636;10.012;2023-12-07T05:30:30;104.87;;;43.97;;
20857;SDS011;10589;53.636;10.012;2023-12-07T05:32:55;105.70;;;44.80;;
20857;SDS011;10589;53.636;10.012;2023-12-07T05:35:21;95.17;;;42.90;;
20857;SDS011;10589;53.636;10.012;2023-12-07T05:37:48;103.87;;;43.50;;
20857;SDS011;10589;53.636;10.012;2023-12-07T05:40:14;102.70;;;43.60;;
20857;SDS011;10589;53.636;10.012;2023-12-07T05:42:41;110.67;;;44.53;;
20857;SDS011;10589;53.636;10.012;2023-12-07T05:45:06;111.63;;;45.20;;
20857;SDS011;10589;53.636;10.012;2023-12-07T05:47:34;104.83;;;42.43;;
20857;SDS011;10589;53.636;10.012;2023-12-07T05:50:00;103.97;;;44.23;;
20857;SDS011;10589;53.636;10.012;2023-12-07T05:52:28;102.83;;;44.23;;
20857;SDS011;10589;53.636;10.012;2023-12-07T05:54:53;104.13;;;43.53;;
20857;SDS011;10589;53.636;10.012;2023-12-07T05:57:19;96.57;;;41.23;;
20857;SDS011;10589;53.636;10.012;2023-12-07T05:59:45;94.23;;;42.17;;
20857;SDS011;10589;53.636;10.012;2023-12-07T06:02:11;115.53;;;46.57;;
20857;SDS011;10589;53.636;10.012;2023-12-07T06:04:36;93.47;;;43.17;;
20857;SDS011;10589;53.636;10.012;2023-12-07T06:07:03;102.67;;;43.07;;
20857;SDS011;10589;53.636;10.012;2023-12-07T06:09:28;99.90;;;40.00;;
20857;SDS011;10589;53.636;10.012;2023-12-07T06:11:55;78.33;;;35.00;;
20857;SDS011;10589;53.636;10.012;2023-12-07T06:14:21;85.03;;;38.57;;
20857;SDS011;10589;53.636;10.012;2023-12-07T06:16:48;71.83;;;33.83;;
20857;SDS011;10589;53.636;10.012;2023-12-07T06:19:13;69.90;;;33.57;;
20857;SDS011;10589;53.636;10.012;2023-12-07T06:21:39;74.27;;;32.20;;
20857;SDS011;10589;53.636;10.012;2023-12-07T06:24:05;75.33;;;34.10;;
20857;SDS011;10589;53.636;10.012;2023-12-07T06:26:33;82.47;;;35.63;;
20857;SDS011;10589;53.636;10.012;2023-12-07T06:28:58;89.67;;;40.97;;
20857;SDS011;10589;53.636;10.012;2023-12-07T06:31:24;74.53;;;35.33;;
20857;SDS011;10589;53.636;10.012;2023-12-07T06:33:49;83.53;;;36.90;;
20857;SDS011;10589;53.636;10.012;2023-12-07T06:36:20;82.70;;;38.67;;
20857;SDS011;10589;53.636;10.012;2023-12-07T06:38:47;95.70;;;41.00;;
20857;SDS011;10589;53.636;10.012;2023-12-07T06:41:13;95.03;;;39.30;;
20857;SDS011;10589;53.636;10.012;2023-12-07T06:43:40;91.03;;;40.07;;
20857;SDS011;10589;53.636;10.012;2023-12-07T06:46:06;99.00;;;42.80;;
20857;SDS011;10589;53.636;10.012;2023-12-07T06:48:32;95.67;;;40.77;;
20857;SDS011;10589;53.636;10.012;2023-12-07T06:50:57;92.20;;;41.80;;
20857;SDS011;10589;53.636;10.012;2023-12-07T06:53:23;103.03;;;42.30;;
20857;SDS011;10589;53.636;10.012;2023-12-07T06:55:49;101.60;;;41.60;;
20857;SDS011;10589;53.636;10.012;2023-12-07T06:58:14;112.30;;;43.23;;
20857;SDS011;10589;53.636;10.012;2023-12-07T07:00:40;101.07;;;42.90;;
20857;SDS011;10589;53.636;10.012;2023-12-07T07:03:05;103.47;;;42.67;;
20857;SDS011;10589;53.636;10.012;2023-12-07T07:05:31;106.37;;;43.67;;
20857;SDS011;10589;53.636;10.012;2023-12-07T07:07:57;158.03;;;47.57;;
20857;SDS011;10589;53.636;10.012;2023-12-07T07:10:22;90.47;;;39.20;;
20857;SDS011;10589;53.636;10.012;2023-12-07T07:12:49;101.03;;;42.67;;
20857;SDS011;10589;53.636;10.012;2023-12-07T07:15:15;100.17;;;43.37;;
20857;SDS011;10589;53.636;10.012;2023-12-07T07:17:41;95.23;;;41.23;;
20857;SDS011;10589;53.636;10.012;2023-12-07T07:20:07;107.20;;;43.80;;
20857;SDS011;10589;53.636;10.012;2023-12-07T07:22:32;97.00;;;42.13;;
20857;SDS011;10589;53.636;10.012;2023-12-07T07:24:59;104.23;;;43.97;;
20857;SDS011;10589;53.636;10.012;2023-12-07T07:27:25;101.60;;;42.13;;
20857;SDS011;10589;53.636;10.012;2023-12-07T07:29:50;94.37;;;41.70;;
20857;SDS011;10589;53.636;10.012;2023-12-07T07:32:17;99.20;;;43.10;;
20857;SDS011;10589;53.636;10.012;2023-12-07T07:34:42;96.17;;;43.30;;
20857;SDS011;10589;53.636;10.012;2023-12-07T07:37:08;96.27;;;43.47;;
20857;SDS011;10589;53.636;10.012;2023-12-07T07:39:33;90.50;;;42.77;;
20857;SDS011;10589;53.636;10.012;2023-12-07T07:41:59;96.60;;;43.63;;
20857;SDS011;10589;53.636;10.012;2023-12-07T07:44:25;134.20;;;45.90;;
20857;SDS011;10589;53.636;10.012;2023-12-07T07:46:51;89.37;;;41.97;;
20857;SDS011;10589;53.636;10.012;2023-12-07T07:49:16;87.07;;;40.43;;
20857;SDS011;10589;53.636;10.012;2023-12-07T07:51:42;95.63;;;42.13;;
20857;SDS011;10589;53.636;10.012;2023-12-07T07:54:08;98.53;;;43.60;;
20857;SDS011;10589;53.636;10.012;2023-12-07T07:56:33;93.10;;;43.17;;
20857;SDS011;10589;53.636;10.012;2023-12-07T07:58:59;91.10;;;42.50;;
20857;SDS011;10589;53.636;10.012;2023-12-07T08:01:25;92.50;;;43.03;;
20857;SDS011;10589;53.636;10.012;2023-12-07T08:03:51;98.40;;;44.13;;
20857;SDS011;10589;53.636;10.012;2023-12-07T08:06:17;92.77;;;44.30;;
20857;SDS011;10589;53.636;10.012;2023-12-07T08:08:43;86.83;;;40.50;;
20857;SDS011;10589;53.636;10.012;2023-12-07T08:11:09;84.20;;;40.13;;
20857;SDS011;10589;53.636;10.012;2023-12-07T08:13:34;98.60;;;44.30;;
20857;SDS011;10589;53.636;10.012;2023-12-07T08:16:00;96.63;;;43.87;;
20857;SDS011;10589;53.636;10.012;2023-12-07T08:18:26;98.50;;;44.87;;
20857;SDS011;10589;53.636;10.012;2023-12-07T08:20:52;105.47;;;45.53;;
20857;SDS011;10589;53.636;10.012;2023-12-07T08:23:17;106.20;;;46.90;;
20857;SDS011;10589;53.636;10.012;2023-12-07T08:25:43;95.73;;;44.30;;
20857;SDS011;10589;53.636;10.012;2023-12-07T08:28:09;106.70;;;45.40;;
20857;SDS011;10589;53.636;10.012;2023-12-07T08:30:35;94.90;;;43.83;;
20857;SDS011;10589;53.636;10.012;2023-12-07T08:33:01;87.37;;;44.27;;
20857;SDS011;10589;53.636;10.012;2023-12-07T08:35:26;102.27;;;45.90;;
20857;SDS011;10589;53.636;10.012;2023-12-07T08:37:52;96.87;;;44.47;;
20857;SDS011;10589;53.636;10.012;2023-12-07T08:40:18;91.47;;;44.27;;
20857;SDS011;10589;53.636;10.012;2023-12-07T08:42:45;96.27;;;43.20;;
20857;SDS011;10589;53.636;10.012;2023-12-07T08:45:11;126.50;;;47.63;;
20857;SDS011;10589;53.636;10.012;2023-12-07T08:47:38;79.50;;;39.10;;
20857;SDS011;10589;53.636;10.012;2023-12-07T08:50:04;88.67;;;44.27;;
20857;SDS011;10589;53.636;10.012;2023-12-07T08:52:32;94.00;;;43.37;;
20857;SDS011;10589;53.636;10.012;2023-12-07T08:54:58;100.60;;;46.27;;
20857;SDS011;10589;53.636;10.012;2023-12-07T08:57:24;83.50;;;41.03;;
20857;SDS011;10589;53.636;10.012;2023-12-07T08:59:49;82.60;;;41.17;;
20857;SDS011;10589;53.636;10.012;2023-12-07T09:02:15;77.37;;;38.57;;
20857;SDS011;10589;53.636;10.012;2023-12-07T09:04:40;100.53;;;45.60;;
20857;SDS011;10589;53.636;10.012;2023-12-07T09:07:06;80.93;;;39.93;;
20857;SDS011;10589;53.636;10.012;2023-12-07T09:09:31;84.27;;;41.83;;
20857;SDS011;10589;53.636;10.012;2023-12-07T09:11:57;79.67;;;38.83;;
20857;SDS011;10589;53.636;10.012;2023-12-07T09:14:23;101.47;;;46.47;;
20857;SDS011;10589;53.636;10.012;2023-12-07T09:16:48;84.37;;;41.23;;
20857;SDS011;10589;53.636;10.012;2023-12-07T09:19:14;91.97;;;42.80;;
20857;SDS011;10589;53.636;10.012;2023-12-07T09:21:40;82.37;;;41.57;;
20857;SDS011;10589;53.636;10.012;2023-12-07T09:24:06;77.40;;;38.57;;
20857;SDS011;10589;53.636;10.012;2023-12-07T09:26:32;91.43;;;44.23;;
20857;SDS011;10589;53.636;10.012;2023-12-07T09:28:57;98.87;;;47.17;;
20857;SDS011;10589;53.636;10.012;2023-12-07T09:31:23;99.13;;;44.53;;
20857;SDS011;10589;53.636;10.012;2023-12-07T09:33:49;93.60;;;44.43;;
20857;SDS011;10589;53.636;10.012;2023-12-07T09:36:17;100.57;;;48.40;;
20857;SDS011;10589;53.636;10.012;2023-12-07T09:38:44;107.13;;;48.67;;
20857;SDS011;10589;53.636;10.012;2023-12-07T09:41:10;106.97;;;49.13;;
20857;SDS011;10589;53.636;10.012;2023-12-07T09:43:36;98.10;;;45.33;;
20857;SDS011;10589;53.636;10.012;2023-12-07T09:46:02;106.30;;;46.47;;
20857;SDS011;10589;53.636;10.012;2023-12-07T09:48:29;97.77;;;46.57;;
20857;SDS011;10589;53.636;10.012;2023-12-07T09:50:55;119.23;;;51.03;;
20857;SDS011;10589;53.636;10.012;2023-12-07T09:53:21;98.73;;;44.27;;
20857;SDS011;10589;53.636;10.012;2023-12-07T09:55:47;99.60;;;47.67;;
20857;SDS011;10589;53.636;10.012;2023-12-07T09:58:13;88.63;;;43.23;;
20857;SDS011;10589;53.636;10.012;2023-12-07T10:00:39;81.37;;;41.83;;
20857;SDS011;10589;53.636;10.012;2023-12-07T10:03:04;85.67;;;40.77;;
20857;SDS011;10589;53.636;10.012;2023-12-07T10:05:34;87.03;;;42.63;;
20857;SDS011;10589;53.636;10.012;2023-12-07T10:08:25;116.27;;;51.60;;
20857;SDS011;10589;53.636;10.012;2023-12-07T10:11:01;100.43;;;48.60;;
20857;SDS011;10589;53.636;10.012;2023-12-07T10:13:32;101.03;;;46.83;;
20857;SDS011;10589;53.636;10.012;2023-12-07T10:16:09;117.20;;;51.87;;
20857;SDS011;10589;53.636;10.012;2023-12-07T10:18:36;107.50;;;48.63;;
20857;SDS011;10589;53.636;10.012;2023-12-07T10:21:04;104.70;;;48.20;;
20857;SDS011;10589;53.636;10.012;2023-12-07T10:23:30;105.97;;;49.27;;
20857;SDS011;10589;53.636;10.012;2023-12-07T10:25:57;103.23;;;48.87;;
20857;SDS011;10589;53.636;10.012;2023-12-07T10:28:24;100.87;;;49.83;;
20857;SDS011;10589;53.636;10.012;2023-12-07T10:30:49;101.57;;;46.43;;
20857;SDS011;10589;53.636;10.012;2023-12-07T10:33:16;86.97;;;44.23;;
20857;SDS011;10589;53.636;10.012;2023-12-07T10:35:42;92.27;;;43.63;;
20857;SDS011;10589;53.636;10.012;2023-12-07T10:38:08;88.13;;;44.27;;
20857;SDS011;10589;53.636;10.012;2023-12-07T10:40:34;99.37;;;47.60;;
20857;SDS011;10589;53.636;10.012;2023-12-07T10:43:00;88.27;;;46.20;;
20857;SDS011;10589;53.636;10.012;2023-12-07T10:45:30;90.50;;;46.60;;
20857;SDS011;10589;53.636;10.012;2023-12-07T10:48:02;95.43;;;47.60;;
20857;SDS011;10589;53.636;10.012;2023-12-07T10:50:34;90.97;;;46.37;;
20857;SDS011;10589;53.636;10.012;2023-12-07T10:53:41;90.37;;;44.50;;
20857;SDS011;10589;53.636;10.012;2023-12-07T10:55:55;90.73;;;41.23;;
20857;SDS011;10589;53.636;10.012;2023-12-07T10:58:24;89.27;;;41.83;;
20857;SDS011;10589;53.636;10.012;2023-12-07T11:00:54;94.43;;;43.67;;
20857;SDS011;10589;53.636;10.012;2023-12-07T11:03:20;91.77;;;44.10;;
20857;SDS011;10589;53.636;10.012;2023-12-07T11:05:50;95.77;;;44.63;;
20857;SDS011;10589;53.636;10.012;2023-12-07T11:08:21;99.87;;;47.03;;
20857;SDS011;10589;53.636;10.012;2023-12-07T11:11:00;104.00;;;45.00;;
20857;SDS011;10589;53.636;10.012;2023-12-07T11:13:32;98.90;;;44.63;;
20857;SDS011;10589;53.636;10.012;2023-12-07T11:16:00;95.77;;;45.00;;
20857;SDS011;10589;53.636;10.012;2023-12-07T11:18:27;109.17;;;47.33;;
20857;SDS011;10589;53.636;10.012;2023-12-07T11:20:56;86.43;;;42.70;;
20857;SDS011;10589;53.636;10.012;2023-12-07T11:23:23;88.30;;;42.37;;
20857;SDS011;10589;53.636;10.012;2023-12-07T11:25:52;96.67;;;44.73;;
20857;SDS011;10589;53.636;10.012;2023-12-07T11:28:21;83.97;;;40.13;;
20857;SDS011;10589;53.636;10.012;2023-12-07T11:31:03;77.10;;;39.23;;
20857;SDS011;10589;53.636;10.012;2023-12-07T11:33:32;77.60;;;39.70;;
20857;SDS011;10589;53.636;10.012;2023-12-07T11:36:04;75.37;;;38.60;;
20857;SDS011;10589;53.636;10.012;2023-12-07T11:38:31;77.90;;;38.90;;
20857;SDS011;10589;53.636;10.012;2023-12-07T11:40:57;75.50;;;39.73;;
20857;SDS011;10589;53.636;10.012;2023-12-07T11:43:45;73.40;;;36.50;;
20857;SDS011;10589;53.636;10.012;2023-12-07T11:46:11;79.53;;;40.47;;
20857;SDS011;10589;53.636;10.012;2023-12-07T11:48:37;73.10;;;39.30;;
20857;SDS011;10589;53.636;10.012;2023-12-07T11:51:04;80.10;;;41.00;;
20857;SDS011;10589;53.636;10.012;2023-12-07T11:53:33;74.53;;;37.97;;
20857;SDS011;10589;53.636;10.012;2023-12-07T11:56:04;68.03;;;36.60;;
20857;SDS011;10589;53.636;10.012;2023-12-07T11:58:32;71.67;;;37.73;;
20857;SDS011;10589;53.636;10.012;2023-12-07T12:00:59;71.17;;;37.33;;
20857;SDS011;10589;53.636;10.012;2023-12-07T12:03:28;57.87;;;34.33;;
20857;SDS011;10589;53.636;10.012;2023-12-07T12:05:55;63.17;;;37.10;;
20857;SDS011;10589;53.636;10.012;2023-12-07T12:08:21;63.77;;;35.73;;
20857;SDS011;10589;53.636;10.012;2023-12-07T12:10:47;66.40;;;36.63;;
20857;SDS011;10589;53.636;10.012;2023-12-07T12:13:15;57.30;;;31.47;;
20857;SDS011;10589;53.636;10.012;2023-12-07T12:15:41;67.87;;;36.00;;
20857;SDS011;10589;53.636;10.012;2023-12-07T12:18:08;54.40;;;31.73;;
20857;SDS011;10589;53.636;10.012;2023-12-07T12:20:34;54.53;;;31.53;;
20857;SDS011;10589;53.636;10.012;2023-12-07T12:23:00;60.10;;;32.93;;
20857;SDS011;10589;53.636;10.012;2023-12-07T12:25:27;59.73;;;33.63;;
20857;SDS011;10589;53.636;10.012;2023-12-07T12:27:55;68.57;;;35.57;;
20857;SDS011;10589;53.636;10.012;2023-12-07T12:30:29;54.33;;;32.63;;
20857;SDS011;10589;53.636;10.012;2023-12-07T12:32:55;56.87;;;33.03;;
20857;SDS011;10589;53.636;10.012;2023-12-07T12:35:22;60.73;;;35.00;;
20857;SDS011;10589;53.636;10.012;2023-12-07T12:37:49;63.47;;;34.97;;
20857;SDS011;10589;53.636;10.012;2023-12-07T12:40:15;58.57;;;33.23;;
20857;SDS011;10589;53.636;10.012;2023-12-07T12:42:49;49.47;;;29.83;;
20857;SDS011;10589;53.636;10.012;2023-12-07T12:45:15;46.80;;;28.27;;
20857;SDS011;10589;53.636;10.012;2023-12-07T12:47:43;59.23;;;34.00;;
20857;SDS011;10589;53.636;10.012;2023-12-07T12:53:03;59.87;;;34.13;;
20857;SDS011;10589;53.636;10.012;2023-12-07T12:55:30;52.83;;;32.07;;
20857;SDS011;10589;53.636;10.012;2023-12-07T12:57:58;60.17;;;33.53;;
20857;SDS011;10589;53.636;10.012;2023-12-07T13:00:26;58.37;;;33.63;;
20857;SDS011;10589;53.636;10.012;2023-12-07T13:02:52;62.80;;;34.77;;
20857;SDS011;10589;53.636;10.012;2023-12-07T13:05:18;69.57;;;37.43;;
20857;SDS011;10589;53.636;10.012;2023-12-07T13:07:44;78.70;;;39.83;;
20857;SDS011;10589;53.636;10.012;2023-12-07T13:10:10;71.87;;;37.10;;
20857;SDS011;10589;53.636;10.012;2023-12-07T13:12:35;66.53;;;35.23;;
20857;SDS011;10589;53.636;10.012;2023-12-07T13:15:01;75.20;;;38.13;;
20857;SDS011;10589;53.636;10.012;2023-12-07T13:17:27;70.10;;;37.27;;
20857;SDS011;10589;53.636;10.012;2023-12-07T13:19:52;77.37;;;38.40;;
20857;SDS011;10589;53.636;10.012;2023-12-07T13:22:19;77.23;;;39.07;;
20857;SDS011;10589;53.636;10.012;2023-12-07T13:24:45;62.43;;;34.83;;
20857;SDS011;10589;53.636;10.012;2023-12-07T13:27:13;56.77;;;31.83;;
20857;SDS011;10589;53.636;10.012;2023-12-07T13:29:40;66.90;;;35.87;;
20857;SDS011;10589;53.636;10.012;2023-12-07T13:32:06;61.93;;;34.10;;
20857;SDS011;10589;53.636;10.012;2023-12-07T13:34:31;68.33;;;37.03;;
20857;SDS011;10589;53.636;10.012;2023-12-07T13:36:57;66.30;;;36.47;;
20857;SDS011;10589;53.636;10.012;2023-12-07T13:39:23;74.63;;;39.23;;
20857;SDS011;10589;53.636;10.012;2023-12-07T13:41:51;65.30;;;35.90;;
20857;SDS011;10589;53.636;10.012;2023-12-07T13:44:17;69.07;;;36.17;;
20857;SDS011;10589;53.636;10.012;2023-12-07T13:46:43;74.03;;;38.50;;
20857;SDS011;10589;53.636;10.012;2023-12-07T13:49:09;81.13;;;40.87;;
20857;SDS011;10589;53.636;10.012;2023-12-07T13:51:36;68.83;;;35.30;;
20857;SDS011;10589;53.636;10.012;2023-12-07T13:54:02;73.63;;;37.07;;
20857;SDS011;10589;53.636;10.012;2023-12-07T13:56:28;80.93;;;39.90;;
20857;SDS011;10589;53.636;10.012;2023-12-07T13:58:54;101.57;;;45.87;;
20857;SDS011;10589;53.636;10.012;2023-12-07T14:01:19;101.63;;;46.83;;
20857;SDS011;10589;53.636;10.012;2023-12-07T14:03:45;100.97;;;46.37;;
20857;SDS011;10589;53.636;10.012;2023-12-07T14:06:11;87.70;;;42.03;;
20857;SDS011;10589;53.636;10.012;2023-12-07T14:08:45;99.97;;;44.87;;
20857;SDS011;10589;53.636;10.012;2023-12-07T14:11:11;131.40;;;49.37;;
20857;SDS011;10589;53.636;10.012;2023-12-07T14:13:37;130.03;;;49.93;;
20857;SDS011;10589;53.636;10.012;2023-12-07T14:16:03;126.57;;;50.53;;
20857;SDS011;10589;53.636;10.012;2023-12-07T14:18:29;112.87;;;48.73;;
20857;SDS011;10589;53.636;10.012;2023-12-07T14:20:55;113.47;;;47.10;;
20857;SDS011;10589;53.636;10.012;2023-12-07T14:23:21;122.53;;;50.43;;
20857;SDS011;10589;53.636;10.012;2023-12-07T14:25:48;99.93;;;44.20;;
20857;SDS011;10589;53.636;10.012;2023-12-07T14:28:16;111.77;;;46.67;;
20857;SDS011;10589;53.636;10.012;2023-12-07T14:30:42;101.60;;;45.03;;
20857;SDS011;10589;53.636;10.012;2023-12-07T14:33:08;118.93;;;47.07;;
20857;SDS011;10589;53.636;10.012;2023-12-07T14:35:34;100.07;;;44.50;;
20857;SDS011;10589;53.636;10.012;2023-12-07T14:37:59;102.43;;;45.67;;
20857;SDS011;10589;53.636;10.012;2023-12-07T14:40:25;87.37;;;42.03;;
20857;SDS011;10589;53.636;10.012;2023-12-07T14:42:51;102.03;;;43.93;;
20857;SDS011;10589;53.636;10.012;2023-12-07T14:45:16;111.60;;;45.97;;
20857;SDS011;10589;53.636;10.012;2023-12-07T14:47:45;94.63;;;42.57;;
20857;SDS011;10589;53.636;10.012;2023-12-07T14:50:11;121.93;;;48.73;;
20857;SDS011;10589;53.636;10.012;2023-12-07T14:52:36;105.73;;;44.73;;
20857;SDS011;10589;53.636;10.012;2023-12-07T14:55:03;100.77;;;44.40;;
20857;SDS011;10589;53.636;10.012;2023-12-07T14:57:29;104.77;;;44.27;;
20857;SDS011;10589;53.636;10.012;2023-12-07T14:59:55;131.87;;;47.43;;
20857;SDS011;10589;53.636;10.012;2023-12-07T15:02:23;118.50;;;47.63;;
20857;SDS011;10589;53.636;10.012;2023-12-07T15:04:49;144.57;;;49.20;;
20857;SDS011;10589;53.636;10.012;2023-12-07T15:07:15;161.77;;;51.33;;
20857;SDS011;10589;53.636;10.012;2023-12-07T15:09:41;107.63;;;44.60;;
20857;SDS011;10589;53.636;10.012;2023-12-07T15:12:07;101.23;;;41.43;;
20857;SDS011;10589;53.636;10.012;2023-12-07T15:14:33;96.40;;;39.87;;
20857;SDS011;10589;53.636;10.012;2023-12-07T15:16:58;108.83;;;43.17;;
20857;SDS011;10589;53.636;10.012;2023-12-07T15:19:24;133.57;;;45.53;;
20857;SDS011;10589;53.636;10.012;2023-12-07T15:21:50;134.27;;;46.73;;
20857;SDS011;10589;53.636;10.012;2023-12-07T15:24:15;141.23;;;45.83;;
20857;SDS011;10589;53.636;10.012;2023-12-07T15:26:42;121.77;;;42.73;;
20857;SDS011;10589;53.636;10.012;2023-12-07T15:29:08;116.50;;;43.90;;
20857;SDS011;10589;53.636;10.012;2023-12-07T15:31:34;114.10;;;42.53;;
20857;SDS011;10589;53.636;10.012;2023-12-07T15:34:00;115.73;;;43.57;;
20857;SDS011;10589;53.636;10.012;2023-12-07T15:36:25;98.10;;;40.97;;
20857;SDS011;10589;53.636;10.012;2023-12-07T15:38:51;104.80;;;42.77;;
20857;SDS011;10589;53.636;10.012;2023-12-07T15:41:18;105.17;;;40.97;;
20857;SDS011;10589;53.636;10.012;2023-12-07T15:43:43;120.40;;;42.80;;
20857;SDS011;10589;53.636;10.012;2023-12-07T15:46:09;105.33;;;39.97;;
20857;SDS011;10589;53.636;10.012;2023-12-07T15:48:34;97.37;;;39.33;;
20857;SDS011;10589;53.636;10.012;2023-12-07T15:51:00;94.30;;;39.77;;
20857;SDS011;10589;53.636;10.012;2023-12-07T15:53:25;107.83;;;41.97;;
20857;SDS011;10589;53.636;10.012;2023-12-07T15:55:53;102.40;;;41.37;;
20857;SDS011;10589;53.636;10.012;2023-12-07T15:58:19;101.20;;;40.53;;
20857;SDS011;10589;53.636;10.012;2023-12-07T16:00:45;88.37;;;39.10;;
20857;SDS011;10589;53.636;10.012;2023-12-07T16:03:10;90.47;;;38.03;;
20857;SDS011;10589;53.636;10.012;2023-12-07T16:05:36;104.40;;;42.00;;
20857;SDS011;10589;53.636;10.012;2023-12-07T16:08:01;98.40;;;39.57;;
20857;SDS011;10589;53.636;10.012;2023-12-07T16:10:27;87.47;;;36.57;;
20857;SDS011;10589;53.636;10.012;2023-12-07T16:12:53;86.77;;;38.53;;
20857;SDS011;10589;53.636;10.012;2023-12-07T16:15:19;79.30;;;34.57;;
20857;SDS011;10589;53.636;10.012;2023-12-07T16:17:44;91.77;;;38.93;;
20857;SDS011;10589;53.636;10.012;2023-12-07T16:20:10;91.03;;;38.37;;
20857;SDS011;10589;53.636;10.012;2023-12-07T16:22:40;101.23;;;40.77;;
20857;SDS011;10589;53.636;10.012;2023-12-07T16:25:06;95.03;;;39.80;;
20857;SDS011;10589;53.636;10.012;2023-12-07T16:27:31;120.83;;;44.03;;
20857;SDS011;10589;53.636;10.012;2023-12-07T16:29:57;107.80;;;41.20;;
20857;SDS011;10589;53.636;10.012;2023-12-07T16:32:23;108.30;;;40.93;;
20857;SDS011;10589;53.636;10.012;2023-12-07T16:34:48;112.27;;;42.23;;
20857;SDS011;10589;53.636;10.012;2023-12-07T16:37:14;99.07;;;41.10;;
20857;SDS011;10589;53.636;10.012;2023-12-07T16:39:43;111.90;;;42.90;;
20857;SDS011;10589;53.636;10.012;2023-12-07T16:42:09;95.23;;;38.20;;
20857;SDS011;10589;53.636;10.012;2023-12-07T16:44:35;91.63;;;39.27;;
20857;SDS011;10589;53.636;10.012;2023-12-07T16:47:01;122.10;;;43.50;;
20857;SDS011;10589;53.636;10.012;2023-12-07T16:49:27;116.13;;;42.80;;
20857;SDS011;10589;53.636;10.012;2023-12-07T16:51:53;92.83;;;38.17;;
20857;SDS011;10589;53.636;10.012;2023-12-07T16:54:19;115.70;;;43.87;;
20857;SDS011;10589;53.636;10.012;2023-12-07T16:56:44;108.97;;;42.20;;
20857;SDS011;10589;53.636;10.012;2023-12-07T16:59:10;98.03;;;40.97;;
20857;SDS011;10589;53.636;10.012;2023-12-07T17:01:35;101.57;;;38.87;;
20857;SDS011;10589;53.636;10.012;2023-12-07T17:04:01;90.67;;;38.10;;
20857;SDS011;10589;53.636;10.012;2023-12-07T17:06:26;105.97;;;42.30;;
20857;SDS011;10589;53.636;10.012;2023-12-07T17:08:52;87.13;;;37.23;;
20857;SDS011;10589;53.636;10.012;2023-12-07T17:11:21;113.67;;;41.67;;
20857;SDS011;10589;53.636;10.012;2023-12-07T17:13:46;111.40;;;42.27;;
20857;SDS011;10589;53.636;10.012;2023-12-07T17:16:13;118.70;;;42.37;;
20857;SDS011;10589;53.636;10.012;2023-12-07T17:18:39;109.67;;;41.77;;
20857;SDS011;10589;53.636;10.012;2023-12-07T17:21:05;104.60;;;38.33;;
20857;SDS011;10589;53.636;10.012;2023-12-07T17:23:30;118.50;;;42.07;;
20857;SDS011;10589;53.636;10.012;2023-12-07T17:25:57;89.60;;;36.27;;
20857;SDS011;10589;53.636;10.012;2023-12-07T17:28:23;95.03;;;34.90;;
20857;SDS011;10589;53.636;10.012;2023-12-07T17:30:48;127.03;;;41.27;;
20857;SDS011;10589;53.636;10.012;2023-12-07T17:33:14;107.10;;;38.97;;
20857;SDS011;10589;53.636;10.012;2023-12-07T17:35:40;134.17;;;42.90;;
20857;SDS011;10589;53.636;10.012;2023-12-07T17:38:05;131.00;;;42.23;;
20857;SDS011;10589;53.636;10.012;2023-12-07T17:40:31;117.00;;;40.27;;
20857;SDS011;10589;53.636;10.012;2023-12-07T17:42:57;106.10;;;38.50;;
20857;SDS011;10589;53.636;10.012;2023-12-07T17:45:22;93.07;;;35.23;;
20857;SDS011;10589;53.636;10.012;2023-12-07T17:47:48;117.30;;;39.17;;
20857;SDS011;10589;53.636;10.012;2023-12-07T17:50:14;111.53;;;41.27;;
20857;SDS011;10589;53.636;10.012;2023-12-07T17:52:39;99.87;;;36.87;;
20857;SDS011;10589;53.636;10.012;2023-12-07T17:55:05;98.60;;;36.27;;
20857;SDS011;10589;53.636;10.012;2023-12-07T17:57:32;112.47;;;39.87;;
20857;SDS011;10589;53.636;10.012;2023-12-07T17:59:58;96.80;;;35.73;;
20857;SDS011;10589;53.636;10.012;2023-12-07T18:02:23;108.40;;;39.70;;
20857;SDS011;10589;53.636;10.012;2023-12-07T18:04:50;85.10;;;33.70;;
20857;SDS011;10589;53.636;10.012;2023-12-07T18:07:16;80.47;;;33.80;;
20857;SDS011;10589;53.636;10.012;2023-12-07T18:09:41;106.47;;;37.77;;
20857;SDS011;10589;53.636;10.012;2023-12-07T18:12:07;90.67;;;35.47;;
20857;SDS011;10589;53.636;10.012;2023-12-07T18:14:33;103.13;;;37.37;;
20857;SDS011;10589;53.636;10.012;2023-12-07T18:16:59;117.87;;;39.57;;
20857;SDS011;10589;53.636;10.012;2023-12-07T18:19:25;126.50;;;43.13;;
20857;SDS011;10589;53.636;10.012;2023-12-07T18:21:50;153.70;;;43.23;;
20857;SDS011;10589;53.636;10.012;2023-12-07T18:24:18;91.37;;;35.23;;
20857;SDS011;10589;53.636;10.012;2023-12-07T18:26:43;91.57;;;37.00;;
20857;SDS011;10589;53.636;10.012;2023-12-07T18:29:09;144.70;;;40.30;;
20857;SDS011;10589;53.636;10.012;2023-12-07T18:31:35;146.63;;;43.10;;
20857;SDS011;10589;53.636;10.012;2023-12-07T18:34:00;91.67;;;35.43;;
20857;SDS011;10589;53.636;10.012;2023-12-07T18:36:26;156.03;;;43.17;;
20857;SDS011;10589;53.636;10.012;2023-12-07T18:38:51;101.40;;;38.03;;
20857;SDS011;10589;53.636;10.012;2023-12-07T18:41:17;87.00;;;35.87;;
20857;SDS011;10589;53.636;10.012;2023-12-07T18:43:43;99.17;;;38.13;;
20857;SDS011;10589;53.636;10.012;2023-12-07T18:46:08;104.23;;;37.60;;
20857;SDS011;10589;53.636;10.012;2023-12-07T18:48:35;126.60;;;39.47;;